createdAt,value
2022-11-05T00:00:07.449Z,18.00
2022-11-05T00:05:30.729Z,19.50
2022-11-05T00:10:36.639Z,19.08
2022-11-05T00:15:57.707Z,20.25
2022-11-05T00:20:59.433Z,22.13
2022-11-05T00:26:03.471Z,17.75
2022-11-05T00:31:09.797Z,18.63
2022-11-05T00:36:11.805Z,20.17
2022-11-05T00:41:13.470Z,18.10
2022-11-05T00:46:15.210Z,17.40
2022-11-05T00:51:17.060Z,18.67
2022-11-05T00:56:18.743Z,20.48
2022-11-05T01:01:20.498Z,18.08
2022-11-05T01:06:22.238Z,19.02
2022-11-05T01:11:37.281Z,16.45
2022-11-05T01:16:40.592Z,17.45
2022-11-05T01:21:42.251Z,17.35
2022-11-05T01:26:43.897Z,17.33
2022-11-05T01:31:45.580Z,16.75
2022-11-05T01:36:47.261Z,17.85
2022-11-05T01:41:48.918Z,20.25
2022-11-05T01:46:50.939Z,16.95
2022-11-05T01:51:52.873Z,14.60
2022-11-05T01:57:04.041Z,17.23
2022-11-05T02:02:07.922Z,15.48
2022-11-05T02:07:11.035Z,16.42
2022-11-05T02:12:14.451Z,15.50
2022-11-05T02:17:48.121Z,16.30
2022-11-05T02:23:14.803Z,16.13
2022-11-05T02:28:30.034Z,14.63
2022-11-05T02:33:58.317Z,16.38
2022-11-05T02:39:13.397Z,16.35
2022-11-05T02:44:27.362Z,14.98
2022-11-05T02:49:48.182Z,13.73
2022-11-05T02:55:08.973Z,10.35
2022-11-05T03:00:35.368Z,10.23
2022-11-05T03:05:47.084Z,11.40
2022-11-05T03:11:17.727Z,12.63
2022-11-05T03:16:28.514Z,13.98
2022-11-05T03:21:36.269Z,14.60
2022-11-05T03:26:56.835Z,14.88
2022-11-05T03:32:02.430Z,17.02
2022-11-05T03:37:06.415Z,18.38
2022-11-05T03:42:13.273Z,20.50
2022-11-05T03:47:22.323Z,20.20
2022-11-05T03:52:28.260Z,21.88
2022-11-05T03:57:34.708Z,23.98
2022-11-05T04:02:38.516Z,25.05
2022-11-05T04:07:58.912Z,25.73
2022-11-05T04:13:19.254Z,25.17
2022-11-05T04:18:21.165Z,24.58
2022-11-05T04:23:41.246Z,26.58
2022-11-05T04:29:05.230Z,25.35
2022-11-05T04:34:09.529Z,25.00
2022-11-05T04:39:11.298Z,24.33
2022-11-05T04:44:12.971Z,23.65
2022-11-05T04:49:14.630Z,22.63
2022-11-05T04:54:16.287Z,23.35
2022-11-05T04:59:17.944Z,25.35
2022-11-05T05:04:20.704Z,23.48
2022-11-05T05:09:22.406Z,23.58
2022-11-05T05:14:24.071Z,24.75
2022-11-05T05:19:26.290Z,23.15
2022-11-05T05:24:27.939Z,23.48
2022-11-05T05:29:29.585Z,24.00
2022-11-05T05:34:31.256Z,24.13
2022-11-05T05:39:32.919Z,22.75
2022-11-05T05:44:34.559Z,21.75
2022-11-05T05:49:36.244Z,21.65
2022-11-05T05:54:42.493Z,22.25
2022-11-05T05:59:44.683Z,23.50
2022-11-05T06:04:46.345Z,25.88
2022-11-05T06:09:48.020Z,22.98
2022-11-05T06:14:49.674Z,21.42
2022-11-05T06:19:51.519Z,22.75
2022-11-05T06:24:53.175Z,22.40
2022-11-05T06:29:54.951Z,23.50
2022-11-05T06:34:56.888Z,26.27
2022-11-05T06:39:58.751Z,25.48
2022-11-05T06:45:00.453Z,23.67
2022-11-05T06:50:02.110Z,23.00
2022-11-05T06:55:04.394Z,20.98
2022-11-05T07:00:08.140Z,21.20
2022-11-05T07:05:13.373Z,18.73
2022-11-05T07:10:17.806Z,19.80
2022-11-05T07:15:19.463Z,19.10
2022-11-05T07:20:21.200Z,17.48
2022-11-05T07:25:22.875Z,16.92
2022-11-05T07:30:24.718Z,23.20
2022-11-05T07:35:27.855Z,17.17
2022-11-05T07:40:31.001Z,16.88
2022-11-05T07:45:32.889Z,16.05
2022-11-05T07:50:37.065Z,15.23
2022-11-05T07:55:40.899Z,16.10
2022-11-05T08:00:42.791Z,17.25
2022-11-05T08:05:46.725Z,15.45
2022-11-05T08:10:48.518Z,15.73
2022-11-05T08:15:51.378Z,14.73
2022-11-05T08:20:53.033Z,14.80
2022-11-05T08:25:55.743Z,14.23
2022-11-05T08:30:57.858Z,15.10
2022-11-05T08:36:03.134Z,13.40
2022-11-05T08:41:05.014Z,13.48
2022-11-05T08:46:06.678Z,13.68
2022-11-05T08:51:08.415Z,10.40
2022-11-05T08:56:10.118Z,14.80
2022-11-05T09:01:11.901Z,11.85
2022-11-05T09:06:14.578Z,10.80
2022-11-05T09:11:16.623Z,10.43
2022-11-05T09:16:21.556Z,9.80
2022-11-05T09:21:23.205Z,10.10
2022-11-05T09:26:24.907Z,9.13
2022-11-05T09:31:26.632Z,9.88
2022-11-05T09:36:28.319Z,9.57
2022-11-05T09:41:35.881Z,8.85
2022-11-05T09:46:45.808Z,9.77
2022-11-05T09:51:47.730Z,10.40
2022-11-05T09:56:49.593Z,10.13
2022-11-05T10:01:59.391Z,7.55
2022-11-05T10:07:06.170Z,6.38
2022-11-05T10:12:17.096Z,6.90
2022-11-05T10:17:27.909Z,7.10
2022-11-05T10:22:29.587Z,6.28
2022-11-05T10:27:36.484Z,5.60
2022-11-05T10:32:42.820Z,5.60
2022-11-05T10:37:46.774Z,5.25
2022-11-05T10:43:03.269Z,5.18
2022-11-05T10:48:13.812Z,4.90
2022-11-05T10:53:20.811Z,5.10
2022-11-05T10:58:29.015Z,4.03
2022-11-05T11:03:41.837Z,3.45
2022-11-05T11:08:46.319Z,3.58
2022-11-05T11:14:09.683Z,3.83
2022-11-05T11:19:34.164Z,4.13
2022-11-05T11:24:42.823Z,2.70
2022-11-05T11:29:50.064Z,2.97
2022-11-05T11:34:54.381Z,2.78
2022-11-05T11:40:02.155Z,2.67
2022-11-05T11:45:35.371Z,3.25
2022-11-05T11:50:43.143Z,3.47
2022-11-05T11:56:05.221Z,3.75
2022-11-05T12:01:09.569Z,3.58
2022-11-05T12:06:39.995Z,3.05
2022-11-05T12:11:54.881Z,2.83
2022-11-05T12:17:02.677Z,3.00
2022-11-05T12:22:22.446Z,2.92
2022-11-05T12:27:38.656Z,2.78
2022-11-05T12:33:09.660Z,2.90
2022-11-05T12:38:11.497Z,2.55
2022-11-05T12:43:32.112Z,2.53
2022-11-05T12:49:04.694Z,3.15
2022-11-05T12:54:23.511Z,2.10
2022-11-05T12:59:36.756Z,3.08
2022-11-05T13:05:01.486Z,2.00
2022-11-05T13:10:20.562Z,3.67
2022-11-05T13:15:29.585Z,2.17
2022-11-05T13:20:39.896Z,3.28
2022-11-05T13:25:51.697Z,2.83
2022-11-05T13:30:57.914Z,2.78
2022-11-05T13:36:22.727Z,2.80
2022-11-05T13:41:34.327Z,3.10
2022-11-05T13:47:03.029Z,3.03
2022-11-05T13:52:38.457Z,2.45
2022-11-05T13:58:36.813Z,2.78
2022-11-05T14:03:45.688Z,2.40
2022-11-05T14:08:47.935Z,2.50
2022-11-05T14:13:55.110Z,2.22
2022-11-05T14:19:18.354Z,3.20
2022-11-05T14:24:22.831Z,2.65
2022-11-05T14:29:24.925Z,1.95
2022-11-05T14:34:45.750Z,1.60
2022-11-05T14:39:47.959Z,2.28
2022-11-05T14:45:34.218Z,1.83
2022-11-05T14:50:39.945Z,2.17
2022-11-05T14:55:43.502Z,2.17
2022-11-05T15:00:47.538Z,1.42
2022-11-05T15:05:51.855Z,2.10
2022-11-05T15:10:56.824Z,2.22
2022-11-05T15:15:59.542Z,2.40
2022-11-05T15:21:03.418Z,2.67
2022-11-05T15:26:22.200Z,2.55
2022-11-05T15:31:26.930Z,2.95
2022-11-05T15:36:31.929Z,2.92
2022-11-05T15:41:34.645Z,3.10
2022-11-05T15:46:36.489Z,3.47
2022-11-05T15:51:38.200Z,3.58
2022-11-05T15:56:52.891Z,4.10
2022-11-05T16:02:21.071Z,3.97
2022-11-05T16:07:23.562Z,3.95
2022-11-05T16:12:32.449Z,4.90
2022-11-05T16:17:39.949Z,8.32
2022-11-05T16:22:46.808Z,9.15
2022-11-05T16:27:48.590Z,7.28
2022-11-05T16:32:50.637Z,6.63
2022-11-05T16:37:52.813Z,5.90
2022-11-05T16:42:55.217Z,12.35
2022-11-05T16:47:58.099Z,8.23
2022-11-05T16:52:59.786Z,5.18
2022-11-05T16:58:01.845Z,7.13
2022-11-05T17:03:04.226Z,7.60
2022-11-05T17:08:05.975Z,7.90
2022-11-05T17:13:19.646Z,6.72
2022-11-05T17:18:21.801Z,9.15
2022-11-05T17:23:26.802Z,14.85
2022-11-05T17:28:29.175Z,15.27
2022-11-05T17:33:31.333Z,15.95
2022-11-05T17:38:33.007Z,16.00
2022-11-05T17:43:34.671Z,16.83
2022-11-05T17:48:38.214Z,17.52
2022-11-05T17:53:39.867Z,16.48
2022-11-05T17:58:41.576Z,16.13
2022-11-05T18:03:43.227Z,17.33
2022-11-05T18:08:44.930Z,17.40
2022-11-05T18:13:46.870Z,18.73
2022-11-05T18:18:49.376Z,23.17
2022-11-05T18:23:51.070Z,26.08
2022-11-05T18:28:52.730Z,29.52
2022-11-05T18:33:59.416Z,27.05
2022-11-05T18:39:03.594Z,26.58
2022-11-05T18:44:05.577Z,25.55
2022-11-05T18:49:07.355Z,24.17
2022-11-05T18:54:09.095Z,24.05
2022-11-05T19:04:46.781Z,21.90
2022-11-05T19:09:56.914Z,19.92
2022-11-05T19:15:02.375Z,21.27
2022-11-05T19:20:05.507Z,22.40
2022-11-05T19:25:07.830Z,23.13
2022-11-05T19:30:10.142Z,22.10
2022-11-05T19:35:11.881Z,24.23
2022-11-05T19:40:13.663Z,24.38
2022-11-05T19:45:44.091Z,22.70
2022-11-05T19:50:42.878Z,21.48
2022-11-05T19:55:45.099Z,21.58
2022-11-05T20:00:46.852Z,22.02
2022-11-05T20:05:48.574Z,22.25
2022-11-05T20:10:54.633Z,21.70
2022-11-05T20:15:56.703Z,21.02
2022-11-05T20:21:04.031Z,21.05
2022-11-05T20:26:06.984Z,19.98
2022-11-05T20:31:11.226Z,19.90
2022-11-05T20:36:19.815Z,19.02
2022-11-05T20:41:21.981Z,19.38
2022-11-05T20:46:24.018Z,18.30
2022-11-05T20:51:25.678Z,18.15
2022-11-05T20:56:30.363Z,18.45
2022-11-05T21:01:33.721Z,18.48
2022-11-05T21:06:35.934Z,17.80
2022-11-05T21:11:56.142Z,19.33
2022-11-05T21:16:57.854Z,20.05
2022-11-05T21:21:59.810Z,19.55
2022-11-05T21:27:01.827Z,19.73
2022-11-05T21:32:03.910Z,19.45
2022-11-05T21:37:05.924Z,17.30
2022-11-05T21:42:07.666Z,20.30
2022-11-05T21:47:09.658Z,17.23
2022-11-05T21:52:30.665Z,16.55
2022-11-05T21:57:52.429Z,15.30
2022-11-05T22:02:54.289Z,14.68
2022-11-05T22:07:56.057Z,16.48
2022-11-05T22:12:57.882Z,15.30
2022-11-05T22:17:59.636Z,16.45
2022-11-05T22:23:01.303Z,16.00
2022-11-05T22:28:03.011Z,16.27
2022-11-05T22:33:04.712Z,15.88
2022-11-05T22:38:06.376Z,15.13
2022-11-05T22:43:08.041Z,15.60
2022-11-05T22:48:09.868Z,13.75
2022-11-05T22:53:11.821Z,12.65
2022-11-05T22:58:13.883Z,13.75
2022-11-05T23:03:15.856Z,13.18
2022-11-05T23:08:35.994Z,10.63
2022-11-05T23:13:37.662Z,13.63
2022-11-05T23:18:58.055Z,12.00
2022-11-05T23:24:05.585Z,13.25
2022-11-05T23:29:07.247Z,13.07
2022-11-05T23:34:08.898Z,12.63
2022-11-05T23:39:10.541Z,12.60
2022-11-05T23:44:30.648Z,12.90
2022-11-05T23:49:32.412Z,10.27
2022-11-05T23:54:34.134Z,11.10
2022-11-05T23:59:35.782Z,11.13
